Latest Weather Observations for Lord Howe Island

IDN60801

Issued at 4:03 pm EST Monday 25 July 2016 (issued every 30 minutes, with the page automatically refreshed every 10 minutes)

About weather observations | Map of weather stations | Latest weather observations for NSW | Other Formats
Station Details ID: 200839 Name: LORD HOWE ISLAND AERO Lat: -31.54 Lon: 159.08 Height: 5.0 m
Data from the previous 72 hours. | See also: Recent months at Lord Howe Island
Date/Time
EST
Temp
°C
App
Temp
°C
Dew
Point
°C
Rel
Hum
%
Delta-T
°C
Wind Press
QNH
hPa
Press
MSL
hPa
Rain since
9am
mm
Dir  Spd
km/h
Gust
km/h
Spd
kts
Gust
kts
25/04:00pm 17.8 10.3 9.4 58 4.4 W 39 50 21 27 1012.6 - 0.0
25/03:30pm 18.0 11.1 9.0 55 4.7 W 35 48 19 26 1012.7 - 0.0
25/03:00pm 18.2 10.4 8.3 52 5.1 W 39 50 21 27 1012.4 - 0.0
25/02:30pm 18.3 11.6 8.2 51 5.2 W 33 44 18 24 1012.3 1012.3 0.0
25/02:00pm 18.3 11.5 7.7 50 5.4 W 33 44 18 24 1012.2 - 0.0
25/01:30pm 18.5 10.4 7.2 47 5.7 WSW 39 48 21 26 1012.6 - 0.0
25/01:00pm 18.3 10.8 9.3 55 4.7 W 39 50 21 27 1012.7 - 0.0
25/12:30pm 18.1 10.5 9.1 55 4.7 WSW 39 46 21 25 1012.6 - 0.0
25/12:00pm 18.8 12.6 10.0 56 4.7 WSW 33 46 18 25 1012.6 - 0.0
25/11:30am 18.8 12.9 11.1 61 4.2 WSW 33 41 18 22 1012.8 1012.8 0.0
25/11:00am 18.6 14.2 11.7 64 3.8 WSW 26 33 14 18 1013.2 - 0.0
25/10:30am 18.3 14.1 11.1 63 3.9 WSW 24 32 13 17 1013.4 - 0.0
25/10:00am 18.4 14.2 11.2 63 3.9 WSW 24 37 13 20 1013.6 - 0.0
25/09:30am 18.4 14.5 12.1 66 3.5 WSW 24 33 13 18 1013.7 - 0.0
25/09:00am 18.2 14.1 12.8 71 3.0 SW 26 39 14 21 1013.8 - 0.0
25/08:30am 18.5 14.8 13.8 74 2.7 WSW 26 33 14 18 1013.4 1013.4 0.0
25/08:00am 18.9 15.2 12.7 67 3.5 W 24 30 13 16 1013.1 - 0.0
25/07:30am 18.7 15.5 13.2 70 3.1 W 22 26 12 14 1012.9 - 0.0
25/07:00am 18.5 15.2 12.8 69 3.2 W 22 28 12 15 1013.0 - 0.0
25/06:30am 18.4 15.6 13.1 71 3.0 W 20 26 11 14 1013.0 - 0.0
25/06:00am 18.2 16.1 13.6 74 2.6 W 17 20 9 11 1012.8 - 0.0
25/05:30am 18.1 16.0 13.7 75 2.5 W 17 22 9 12 1012.7 1012.7 0.0
25/05:00am 18.0 17.0 13.4 74 2.6 WNW 11 22 6 12 1012.7 - 0.0
25/04:30am 18.1 16.8 12.5 70 3.1 WNW 11 24 6 13 1013.0 - 0.0
25/04:00am 18.2 16.7 12.0 67 3.4 WNW 11 19 6 10 1012.9 - 0.0
25/03:30am 18.2 16.4 12.0 67 3.4 WNW 13 22 7 12 1012.9 - 0.0
25/03:00am 18.2 15.5 11.8 66 3.5 WNW 17 28 9 15 1013.1 - 0.0
25/02:30am 17.6 15.8 12.0 69 3.1 W 13 19 7 10 1013.3 1013.3 0.0
25/02:00am 18.0 16.2 12.0 68 3.3 WNW 13 20 7 11 1013.7 - 0.0
25/01:30am 18.0 15.8 12.0 68 3.3 W 15 24 8 13 1013.8 - 0.0
25/01:00am 17.9 16.0 11.7 67 3.4 WNW 13 22 7 12 1014.2 - 0.0
25/12:30am 17.9 15.8 11.1 64 3.7 WNW 13 19 7 10 1014.4 - 0.0
25/12:00am 17.8 15.9 10.5 62 3.9 WNW 11 19 6 10 1014.4 - 0.0
 
Date/Time
EST
Temp
°C
App
Temp
°C
Dew
Point
°C
Rel
Hum
%
Delta-T
°C
Wind Press
QNH
hPa
Press
MSL
hPa
Rain since
9am
mm
Dir  Spd
km/h
Gust
km/h
Spd
kts
Gust
kts
24/11:30pm 17.6 16.1 10.5 63 3.8 WNW 9 17 5 9 1014.3 1014.3 0.0
24/11:00pm 17.5 16.0 10.4 63 3.8 WNW 9 17 5 9 1014.8 - 0.0
24/10:30pm 17.5 15.8 9.7 60 4.1 NW 9 17 5 9 1014.8 - 0.0
24/10:00pm 17.5 15.3 9.5 59 4.2 WNW 11 17 6 9 1014.6 - 0.0
24/09:30pm 17.4 15.5 9.1 58 4.3 NW 9 17 5 9 1015.0 - 0.0
24/09:00pm 17.1 15.7 9.4 60 4.0 WNW 7 11 4 6 1014.7 - 0.0
24/08:30pm 16.3 14.9 8.9 61 3.8 NW 6 9 3 5 1014.3 1014.3 0.0
24/08:00pm 16.1 15.1 8.9 62 3.7 NNW 4 7 2 4 1014.2 - 0.0
24/07:30pm 16.7 15.2 8.5 58 4.2 NW 6 9 3 5 1014.4 - 0.0
24/07:00pm 17.3 14.4 8.3 55 4.6 W 13 19 7 10 1014.3 - 0.0
24/06:30pm 17.4 14.5 8.2 54 4.7 W 13 20 7 11 1014.3 - 0.0
24/06:00pm 17.4 14.0 7.7 53 4.9 W 15 22 8 12 1014.0 - 0.0
24/05:30pm 17.4 13.8 8.4 55 4.6 W 17 22 9 12 1014.4 1014.4 0.0
24/05:00pm 17.5 13.5 8.3 54 4.7 W 19 22 10 12 1014.0 - 0.0
24/04:30pm 17.6 13.6 8.4 55 4.7 WSW 19 26 10 14 1013.5 - 0.0
24/04:00pm 17.5 13.6 9.5 59 4.2 WSW 20 26 11 14 1013.4 - 0.0
24/03:30pm 17.5 13.7 9.7 60 4.1 WSW 20 28 11 15 1013.7 - 0.0
24/03:00pm 17.4 14.2 10.0 62 3.9 WSW 17 24 9 13 1013.3 - 0.0
24/02:30pm 17.4 14.7 10.2 62 3.8 WSW 15 20 8 11 1013.4 1013.4 0.0
24/02:00pm 17.4 14.5 10.9 65 3.5 SW 17 22 9 12 1013.3 - 0.0
24/01:30pm 17.7 15.0 11.7 68 3.3 SW 17 24 9 13 1013.2 - 0.0
24/01:00pm 17.4 14.8 12.1 71 2.9 SW 17 28 9 15 1013.6 - 0.0
24/12:30pm 18.0 14.6 11.2 64 3.7 WSW 20 26 11 14 1013.3 - 0.0
24/12:00pm 17.8 14.1 10.1 60 4.1 WSW 20 30 11 16 1013.7 - 0.0
24/11:30am 17.6 14.1 10.3 62 3.9 WSW 19 26 10 14 1014.4 1014.4 0.0
24/11:00am 17.6 13.8 9.8 60 4.1 SW 20 28 11 15 1014.4 - 0.0
24/10:30am 17.6 14.4 10.0 61 4.0 SW 17 26 9 14 1014.6 - 0.0
24/10:00am 17.7 14.3 10.4 62 3.9 WSW 19 26 10 14 1014.7 - 0.0
24/09:30am 18.0 14.4 10.7 62 3.9 SW 20 33 11 18 1014.6 - 0.0
24/09:00am 17.3 13.7 10.6 64 3.6 SW 20 30 11 16 1014.5 - 0.0
24/08:30am 17.9 14.8 11.7 67 3.4 SW 19 30 10 16 1014.2 1014.2 0.0
24/08:00am 17.7 13.9 9.7 59 4.2 SW 20 32 11 17 1014.1 - 0.0
24/07:30am 17.6 13.9 10.0 61 4.0 SW 20 37 11 20 1013.7 - 0.0
24/07:00am 17.7 14.1 9.7 59 4.2 SW 19 33 10 18 1013.0 - 0.0
24/06:42am 18.3 12.3 7.2 48 5.6 WSW 28 46 15 25 1012.8 - 0.0
24/06:30am 18.1 11.6 6.6 47 5.7 WSW 30 41 16 22 1012.7 - 0.0
24/06:00am 18.0 12.1 7.5 50 5.3 WSW 28 41 15 22 1011.9 - 0.0
24/05:30am 18.2 12.4 7.8 50 5.3 WSW 28 43 15 23 1011.8 1011.8 0.0
24/05:00am 18.1 11.1 6.9 48 5.6 WSW 33 44 18 24 1011.3 - 0.0
24/04:30am 18.1 12.5 8.9 55 4.8 WSW 28 43 15 23 1010.7 - 0.0
24/04:14am 18.2 12.3 9.2 55 4.7 WSW 30 48 16 26 1010.5 - 0.0
24/04:00am 18.2 11.1 8.0 51 5.2 WSW 35 48 19 26 1010.5 - 0.0
24/03:30am 18.2 11.8 9.5 57 4.6 WSW 33 48 18 26 1010.0 - 0.0
24/03:00am 18.3 11.1 7.7 50 5.4 WSW 35 50 19 27 1009.9 - 0.0
24/02:50am 18.4 11.9 8.1 51 5.3 WSW 32 50 17 27 1009.9 - 0.0
24/02:30am 18.3 11.8 8.2 51 5.2 WSW 32 46 17 25 1009.8 1009.8 0.0
24/02:00am 18.4 11.5 9.0 54 4.9 WSW 35 48 19 26 1009.7 - 0.0
24/01:30am 18.5 11.7 9.2 54 4.9 WSW 35 48 19 26 1009.8 - 0.0
24/01:00am 18.5 12.9 8.7 53 5.1 WSW 28 41 15 22 1009.9 - 0.0
24/12:30am 18.4 11.9 8.1 51 5.3 WSW 32 44 17 24 1009.6 - 0.0
24/12:00am 18.5 11.9 7.7 49 5.5 WSW 32 46 17 25 1009.5 - 0.0
 
Date/Time
EST
Temp
°C
App
Temp
°C
Dew
Point
°C
Rel
Hum
%
Delta-T
°C
Wind Press
QNH
hPa
Press
MSL
hPa
Rain since
9am
mm
Dir  Spd
km/h
Gust
km/h
Spd
kts
Gust
kts
23/11:30pm 18.4 11.8 7.8 50 5.4 SW 32 44 17 24 1009.3 1009.3 0.0
23/11:12pm 18.4 12.1 8.8 53 5.0 WSW 32 50 17 27 1009.3 - 0.0
23/11:00pm 18.4 12.1 9.0 54 4.9 WSW 32 48 17 26 1009.2 - 0.0
23/10:30pm 18.4 11.7 8.3 51 5.2 WSW 33 48 18 26 1009.1 - 0.0
23/10:00pm 18.5 12.2 8.9 53 5.0 SW 32 46 17 25 1008.7 - 0.0
23/09:34pm 18.6 12.3 9.1 54 5.0 WSW 32 50 17 27 1008.7 - 0.0
23/09:30pm 18.6 12.7 10.4 59 4.4 WSW 32 44 17 24 1008.7 - 0.0
23/09:00pm 18.7 12.1 10.1 57 4.6 WSW 35 46 19 25 1008.0 - 0.0
23/08:30pm 18.8 12.6 9.3 54 5.0 SW 32 44 17 24 1007.8 1007.8 0.0
23/08:00pm 19.1 13.0 9.9 55 4.9 SW 32 52 17 28 1007.8 - 0.0
23/07:56pm 19.1 13.0 9.9 55 4.9 SW 32 52 17 28 1007.8 - 0.0
23/07:30pm 19.3 13.6 11.3 60 4.4 WSW 32 46 17 25 1007.2 - 0.0
23/07:00pm 19.4 14.6 11.6 60 4.3 SW 28 43 15 23 1006.6 - 0.0
23/06:30pm 19.6 14.3 11.2 58 4.6 WSW 30 50 16 27 1006.1 - 0.0
23/06:26pm 19.6 14.2 10.8 56 4.8 SW 30 50 16 27 1006.0 - 0.0
23/06:00pm 19.8 14.4 12.7 63 4.0 WSW 33 46 18 25 1005.6 - 0.0
23/05:30pm 19.8 13.8 10.8 56 4.9 WSW 33 46 18 25 1005.0 1005.0 0.0
23/05:00pm 19.8 13.9 12.3 62 4.2 WSW 35 44 19 24 1004.8 - 0.0
23/04:30pm 19.8 13.9 12.3 62 4.2 SW 35 52 19 28 1004.3 - 0.0
23/04:00pm 20.1 15.1 13.9 67 3.6 SW 33 44 18 24 1003.7 - 0.0
23/03:30pm 20.4 16.3 15.9 75 2.7 WSW 32 44 17 24 1003.2 - 0.0
23/03:07pm 20.4 16.7 15.9 75 2.7 WSW 30 48 16 26 1003.2 - 0.0
23/03:00pm 20.3 17.4 17.0 81 2.0 SW 28 43 15 23 1003.0 - 0.0
23/02:54pm 20.2 17.2 16.7 80 2.1 SW 28 39 15 21 1002.9 - 0.0
23/02:49pm 20.1 16.3 16.8 81 2.0 WSW 32 50 17 27 1002.7 - 0.0
23/02:48pm 20.1 16.1 16.8 81 2.0 WSW 33 50 18 27 1002.7 - 0.0
23/02:38pm 20.4 14.4 16.4 78 2.4 WSW 43 50 23 27 1002.5 - 0.0
23/02:30pm 21.7 16.9 19.3 86 1.5 W 43 56 23 30 1002.3 1002.3 0.0
23/02:24pm 21.8 17.9 19.5 87 1.5 W 39 52 21 28 1002.2 - 0.0
23/02:02pm 22.0 19.1 19.2 84 1.8 W 33 57 18 31 1002.1 - 0.0
23/02:00pm 22.0 19.1 19.2 84 1.8 W 33 50 18 27 1002.0 - 0.0
23/01:30pm 22.1 19.6 18.9 82 2.0 WNW 30 48 16 26 1002.1 - 0.0
23/01:00pm 22.0 20.0 19.2 84 1.8 WNW 28 48 15 26 1002.2 - 0.0
23/12:58pm 21.9 19.9 19.2 85 1.7 WNW 28 48 15 26 1002.2 - 0.0
23/12:44pm 22.0 19.7 19.3 85 1.7 WNW 30 52 16 28 1002.3 - 0.0
23/12:40pm 22.1 19.8 19.3 84 1.8 WNW 30 46 16 25 1002.4 - 0.0
23/12:30pm 22.1 19.3 19.1 83 1.9 WNW 32 50 17 27 1002.4 - 0.0
23/12:03pm 22.1 19.6 18.9 82 2.0 WNW 30 48 16 26 1002.8 - 0.0
23/12:00pm 22.0 19.2 19.0 83 1.9 WNW 32 48 17 26 1003.0 - 0.0
23/11:30am 22.3 20.1 18.8 80 2.2 WNW 28 50 15 27 1003.3 1003.3 0.0
23/11:00am 22.8 20.7 19.0 79 2.4 NW 28 54 15 29 1003.5 - 0.0
23/10:30am 22.2 20.2 19.1 82 2.0 NW 28 57 15 31 1003.9 - 0.0
23/10:00am 22.2 20.1 19.0 82 2.0 NW 28 57 15 31 1004.7 - 0.0
23/09:30am 22.0 20.3 19.0 83 1.9 WNW 26 46 14 25 1005.1 - 0.0
23/09:00am 22.1 20.4 18.9 82 2.0 WNW 26 54 14 29 1005.1 - 0.0
23/08:30am 22.0 19.5 18.8 82 2.0 NW 30 61 16 33 1005.0 1005.0 0.4
23/08:00am 21.7 19.0 18.5 82 2.0 NNW 30 63 16 34 1004.8 - 0.4
23/07:30am 21.3 18.7 18.6 84 1.7 NNW 30 59 16 32 1004.6 - 0.4
23/07:20am 21.4 17.8 18.5 83 1.8 NW 35 70 19 38 1004.8 - 0.4
23/07:15am 21.4 18.7 18.4 83 1.9 NW 30 70 16 38 1005.0 - 0.4
23/07:01am 21.1 19.6 18.5 85 1.6 NW 24 46 13 25 1004.9 - 0.4
23/07:00am 21.1 19.6 18.5 85 1.6 NW 24 46 13 25 1004.9 - 0.4
23/06:32am 21.0 17.9 18.4 85 1.6 NW 32 63 17 34 1004.8 - 0.4
23/06:30am 21.1 17.8 18.4 84 1.7 NNW 33 63 18 34 1004.9 - 0.4
23/06:00am 21.0 18.7 18.4 85 1.6 NW 28 48 15 26 1005.1 - 0.4
23/05:45am 20.9 18.6 18.5 86 1.5 NNW 28 56 15 30 1005.0 - 0.4
23/05:30am 20.9 19.2 18.2 84 1.7 NW 24 37 13 20 1005.1 1005.1 0.4
23/05:00am 20.9 19.9 18.0 83 1.8 WNW 20 43 11 23 1005.6 - 0.4
23/04:30am 20.9 19.2 18.0 83 1.8 WNW 24 54 13 29 1005.7 - 0.4
23/04:00am 20.8 19.6 18.4 86 1.5 WNW 22 41 12 22 1005.8 - 0.4
23/03:30am 20.7 19.4 18.1 85 1.6 WNW 22 37 12 20 1006.2 - 0.4
23/03:00am 20.7 19.8 18.3 86 1.5 WNW 20 33 11 18 1006.7 - 0.4
23/02:30am 20.5 20.2 18.3 87 1.4 WNW 17 33 9 18 1006.7 1006.7 0.4
23/02:00am 20.6 19.3 18.2 86 1.5 NW 22 44 12 24 1007.2 - 0.4
23/01:30am 20.5 19.6 18.1 86 1.5 NW 20 37 11 20 1007.4 - 0.4
23/01:00am 20.5 19.7 18.1 86 1.5 NW 19 32 10 17 1008.0 - 0.4
23/12:30am 20.6 19.5 17.7 83 1.8 NW 20 35 11 19 1008.3 - 0.4
23/12:13am 20.5 18.9 17.4 82 1.9 NW 22 43 12 23 1008.6 - 0.4
23/12:07am 20.4 19.3 17.3 82 1.9 NW 19 35 10 19 1008.8 - 0.4
23/12:00am 20.4 19.6 18.0 86 1.5 NW 19 43 10 23 1009.1 - 0.4
 
Date/Time
EST
Temp
°C
App
Temp
°C
Dew
Point
°C
Rel
Hum
%
Delta-T
°C
Wind Press
QNH
hPa
Press
MSL
hPa
Rain since
9am
mm
Dir  Spd
km/h
Gust
km/h
Spd
kts
Gust
kts
22/11:55pm 20.5 20.0 17.7 84 1.7 NW 17 43 9 23 1009.3 - 0.4
22/11:45pm 20.4 19.2 17.6 84 1.7 NW 20 37 11 20 1009.3 - 0.4
22/11:30pm 20.4 19.3 17.8 85 1.6 NW 20 35 11 19 1010.0 1010.0 0.4
22/11:00pm 20.2 19.2 17.6 85 1.6 NW 19 32 10 17 1010.2 - 0.4
22/10:30pm 20.0 19.6 17.2 84 1.7 NW 15 30 8 16 1010.2 - 0.4
22/10:14pm 19.9 19.0 16.9 83 1.8 NW 17 32 9 17 1010.5 - 0.4
22/10:11pm 19.9 19.0 16.8 82 1.9 NW 17 32 9 17 1010.5 - 0.4
22/10:00pm 19.8 19.7 17.0 84 1.7 NW 13 22 7 12 1010.6 - 0.4
22/09:30pm 19.8 19.6 16.8 83 1.8 NNW 13 22 7 12 1010.8 - 0.4
22/09:00pm 19.5 19.6 16.5 83 1.8 NW 11 20 6 11 1010.8 - 0.4
22/08:30pm 19.3 19.6 16.1 82 1.9 NW 9 20 5 11 1011.3 1011.3 0.4
22/08:15pm 19.1 19.4 16.1 83 1.8 NW 9 15 5 8 1011.3 - 0.4
22/08:00pm 19.0 18.8 15.8 82 1.9 NNW 11 17 6 9 1011.2 - 0.4
22/07:59pm 19.1 18.9 15.7 80 2.0 NNW 11 17 6 9 1011.3 - 0.4
22/07:37pm 18.7 18.7 15.3 80 2.0 NW 9 20 5 11 1011.6 - 0.4
22/07:30pm 18.7 18.7 15.1 79 2.1 NW 9 20 5 11 1011.6 - 0.4
22/07:00pm 18.2 18.4 14.6 79 2.1 WNW 7 13 4 7 1011.8 - 0.4
22/06:30pm 17.8 17.9 14.5 81 1.9 WNW 7 11 4 6 1011.6 - 0.4
22/06:00pm 17.6 17.3 14.3 81 1.9 W 9 15 5 8 1011.6 - 0.4
22/05:30pm 17.7 16.6 14.2 80 2.0 W 13 17 7 9 1011.4 1011.4 0.4
22/05:00pm 17.9 17.1 14.1 78 2.2 WNW 11 19 6 10 1011.2 - 0.4
22/04:30pm 18.2 16.9 13.8 75 2.5 WNW 13 19 7 10 1011.0 - 0.4
22/04:00pm 18.4 17.5 13.7 74 2.7 WNW 11 20 6 11 1011.0 - 0.4

Other Formats:

Comma delimited format used in spreadsheet applications
http://www.bom.gov.au/fwo/IDN60801/IDN60801.94995.axf

JavaScript Object Notation format (JSON) in row-major order
http://www.bom.gov.au/fwo/IDN60801/IDN60801.94995.json